Time;durP1;ratioP1;P1;durP2;ratioP2;P2;SDS_P1;SDS_P2;PMS_P1;PMS_P2;Temp;Humidity;BMP_temperature;BMP_pressure;BME280_temperature;BME280_humidity;BME280_pressure;Samples;Min_cycle;Max_cycle;Signal;HPM_P1;HPM_P2
2023/07/24 00:01:01;;;;;;;10.18;3.60;;;;;;;;;;5015205;28;20025;-74
2023/07/24 00:03:27;;;;;;;9.98;3.28;;;;;;;;;;5015065;28;20028;-74
2023/07/24 00:05:53;;;;;;;9.63;4.07;;;;;;;;;;5013726;28;20092;-74
2023/07/24 00:08:19;;;;;;;9.80;3.88;;;;;;;;;;5014966;28;20105;-74
2023/07/24 00:10:45;;;;;;;8.10;3.45;;;;;;;;;;5014924;28;20030;-74
2023/07/24 00:13:11;;;;;;;9.07;3.67;;;;;;;;;;5014892;28;20037;-74
2023/07/24 00:15:39;;;;;;;9.95;3.40;;;;;;;;;;5014804;28;20026;-74
2023/07/24 00:18:05;;;;;;;14.35;3.75;;;;;;;;;;5014354;28;20101;-74
2023/07/24 00:20:31;;;;;;;8.30;3.58;;;;;;;;;;5014809;28;20611;-74
2023/07/24 00:22:57;;;;;;;12.75;3.30;;;;;;;;;;5014756;28;20026;-74
2023/07/24 00:25:23;;;;;;;8.60;3.58;;;;;;;;;;5014715;28;20017;-74
2023/07/24 00:27:49;;;;;;;13.02;3.65;;;;;;;;;;5014321;28;20681;-74
2023/07/24 00:30:15;;;;;;;8.75;3.75;;;;;;;;;;5014563;28;20030;-74
2023/07/24 00:32:41;;;;;;;7.65;3.75;;;;;;;;;;5014538;28;20445;-74
2023/07/24 00:35:07;;;;;;;9.68;3.72;;;;;;;;;;5014469;28;20025;-74
2023/07/24 00:37:33;;;;;;;6.70;3.40;;;;;;;;;;5014459;28;20068;-74
2023/07/24 00:40:00;;;;;;;10.65;3.47;;;;;;;;;;5014304;28;20113;-74
2023/07/24 00:42:26;;;;;;;8.65;3.33;;;;;;;;;;5014486;28;20453;-74
2023/07/24 00:44:52;;;;;;;8.75;3.25;;;;;;;;;;5014391;28;20107;-74
2023/07/24 00:47:18;;;;;;;7.25;3.90;;;;;;;;;;5014295;28;20018;-74
2023/07/24 00:49:44;;;;;;;10.10;3.63;;;;;;;;;;5014199;28;20369;-74
2023/07/24 00:52:11;;;;;;;11.68;3.80;;;;;;;;;;5014251;28;20026;-74
2023/07/24 00:54:37;;;;;;;8.65;4.00;;;;;;;;;;5014089;28;20045;-74
2023/07/24 00:57:04;;;;;;;9.15;4.25;;;;;;;;;;5014316;28;20022;-74
2023/07/24 00:59:30;;;;;;;13.85;4.72;;;;;;;;;;5014078;28;20030;-74
2023/07/24 01:01:56;;;;;;;10.32;4.07;;;;;;;;;;5013921;28;20080;-74
2023/07/24 01:04:22;;;;;;;12.23;4.50;;;;;;;;;;5014383;28;20053;-74
2023/07/24 01:06:48;;;;;;;10.98;4.13;;;;;;;;;;5013843;28;20029;-74
2023/07/24 01:09:14;;;;;;;9.88;4.72;;;;;;;;;;5013778;28;20568;-74
2023/07/24 01:11:48;;;;;;;11.35;4.65;;;;;;;;;;5013869;28;20026;-74
2023/07/24 01:14:22;;;;;;;8.40;3.95;;;;;;;;;;5013818;28;20037;-74
2023/07/24 01:16:48;;;;;;;10.27;4.70;;;;;;;;;;5014126;28;20053;-74
2023/07/24 01:19:21;;;;;;;12.23;4.38;;;;;;;;;;5013710;28;20420;-74
2023/07/24 01:22:02;;;;;;;10.70;4.53;;;;;;;;;;5013572;28;20021;-74
2023/07/24 01:24:40;;;;;;;9.88;4.78;;;;;;;;;;5013906;28;20364;-74
2023/07/24 01:27:07;;;;;;;10.23;4.63;;;;;;;;;;5013257;28;20164;-74
2023/07/24 01:29:33;;;;;;;11.57;4.90;;;;;;;;;;5013455;28;20084;-74
2023/07/24 01:31:59;;;;;;;11.55;4.95;;;;;;;;;;5013443;28;20026;-74
2023/07/24 01:34:25;;;;;;;11.20;5.53;;;;;;;;;;5013437;28;20080;-74
2023/07/24 01:36:51;;;;;;;14.57;4.82;;;;;;;;;;5013370;28;20025;-74
2023/07/24 01:39:19;;;;;;;11.48;4.75;;;;;;;;;;5013394;28;20030;-74
2023/07/24 01:41:45;;;;;;;17.80;5.47;;;;;;;;;;5013278;28;20600;-74
2023/07/24 01:44:11;;;;;;;9.70;5.10;;;;;;;;;;5013524;28;20021;-74
2023/07/24 01:46:37;;;;;;;11.63;4.88;;;;;;;;;;5013170;28;20052;-74
2023/07/24 01:49:03;;;;;;;11.20;4.65;;;;;;;;;;5013103;28;20030;-74
2023/07/24 01:51:29;;;;;;;12.90;5.43;;;;;;;;;;5013075;28;20022;-74
2023/07/24 01:53:55;;;;;;;11.30;4.28;;;;;;;;;;5013045;28;20034;-74
2023/07/24 01:56:21;;;;;;;13.80;4.72;;;;;;;;;;5013114;28;20026;-74
2023/07/24 01:58:47;;;;;;;11.80;4.13;;;;;;;;;;5013068;28;20105;-74
2023/07/24 02:01:14;;;;;;;11.93;4.70;;;;;;;;;;5012973;28;20109;-74
2023/07/24 02:03:40;;;;;;;10.93;4.50;;;;;;;;;;5013172;28;20576;-74
2023/07/24 02:06:06;;;;;;;11.57;4.53;;;;;;;;;;5012961;28;20101;-74
2023/07/24 02:08:32;;;;;;;9.52;4.78;;;;;;;;;;5012756;28;20034;-74
2023/07/24 02:11:00;;;;;;;12.20;5.13;;;;;;;;;;5013022;28;20476;-74
2023/07/24 02:13:26;;;;;;;12.52;5.00;;;;;;;;;;5012850;28;20464;-74
2023/07/24 02:15:53;;;;;;;9.80;5.00;;;;;;;;;;5012791;28;20030;-74
2023/07/24 02:18:19;;;;;;;13.93;5.05;;;;;;;;;;5012990;28;20076;-74
2023/07/24 02:20:51;;;;;;;9.77;4.80;;;;;;;;;;5012678;28;20022;-74
2023/07/24 02:23:17;;;;;;;16.20;5.25;;;;;;;;;;5013009;28;20384;-74
2023/07/24 02:25:44;;;;;;;13.32;4.50;;;;;;;;;;5012913;28;20127;-74
2023/07/24 02:28:11;;;;;;;13.45;4.82;;;;;;;;;;5012365;28;20392;-74
2023/07/24 02:30:40;;;;;;;13.13;4.90;;;;;;;;;;5012583;28;20032;-74
2023/07/24 02:33:06;;;;;;;11.97;4.63;;;;;;;;;;5012332;28;20025;-74
2023/07/24 02:35:32;;;;;;;8.70;4.72;;;;;;;;;;5012426;28;20630;-74
2023/07/24 02:37:58;;;;;;;10.40;4.28;;;;;;;;;;5013104;28;20022;-74
2023/07/24 02:40:24;;;;;;;10.77;4.55;;;;;;;;;;5013731;28;20084;-74
2023/07/24 02:42:50;;;;;;;7.72;4.45;;;;;;;;;;5017018;28;20100;-74
2023/07/24 02:45:16;;;;;;;12.50;4.60;;;;;;;;;;5016953;28;20421;-74
2023/07/24 02:47:42;;;;;;;11.40;4.55;;;;;;;;;;5016648;28;20026;-74
2023/07/24 02:50:09;;;;;;;10.70;4.72;;;;;;;;;;5016753;28;20116;-74
2023/07/24 02:52:35;;;;;;;14.50;5.10;;;;;;;;;;5016765;28;20061;-74
2023/07/24 02:55:01;;;;;;;14.93;4.65;;;;;;;;;;5016408;28;20064;-75
2023/07/24 02:57:27;;;;;;;12.30;4.55;;;;;;;;;;5016431;28;20076;-74
2023/07/24 02:59:53;;;;;;;10.07;4.95;;;;;;;;;;5016290;28;20040;-74
2023/07/24 03:02:19;;;;;;;12.73;5.25;;;;;;;;;;5016264;28;20451;-74
2023/07/24 03:04:45;;;;;;;9.82;4.47;;;;;;;;;;5016226;28;20079;-74
2023/07/24 03:07:11;;;;;;;12.55;5.10;;;;;;;;;;5016035;28;20025;-74
2023/07/24 03:09:37;;;;;;;10.05;4.28;;;;;;;;;;5016013;28;20038;-74
2023/07/24 03:12:03;;;;;;;10.20;4.50;;;;;;;;;;5015802;28;20030;-74
2023/07/24 03:14:29;;;;;;;12.75;4.57;;;;;;;;;;5016220;28;20033;-74
2023/07/24 03:16:55;;;;;;;12.02;4.45;;;;;;;;;;5015980;28;20029;-74
2023/07/24 03:19:21;;;;;;;16.38;4.25;;;;;;;;;;5015958;28;20030;-74
2023/07/24 03:21:47;;;;;;;11.73;4.40;;;;;;;;;;5016147;28;20112;-74
2023/07/24 03:24:13;;;;;;;16.98;4.97;;;;;;;;;;5015759;28;20157;-74
2023/07/24 03:26:39;;;;;;;14.73;4.97;;;;;;;;;;5014604;28;20058;-74
2023/07/24 03:29:05;;;;;;;15.00;4.90;;;;;;;;;;5015701;28;20385;-74
2023/07/24 03:31:31;;;;;;;13.43;5.30;;;;;;;;;;5015974;28;20109;-74
2023/07/24 03:33:58;;;;;;;11.82;4.93;;;;;;;;;;5015544;28;20108;-74
2023/07/24 03:36:24;;;;;;;12.45;4.70;;;;;;;;;;5015718;28;20372;-74
2023/07/24 03:38:49;;;;;;;11.55;4.38;;;;;;;;;;5015554;28;20109;-74
2023/07/24 03:41:16;;;;;;;13.15;4.72;;;;;;;;;;5015851;28;20036;-74
2023/07/24 03:43:42;;;;;;;10.00;4.45;;;;;;;;;;5015306;28;20363;-74
2023/07/24 03:46:08;;;;;;;10.00;4.38;;;;;;;;;;5015284;28;20385;-74
2023/07/24 03:48:34;;;;;;;10.07;3.95;;;;;;;;;;5015220;28;20042;-74
2023/07/24 03:51:01;;;;;;;13.82;4.80;;;;;;;;;;5015482;28;20025;-74
2023/07/24 03:53:27;;;;;;;10.73;4.82;;;;;;;;;;5013944;28;20022;-74
2023/07/24 03:55:54;;;;;;;11.90;4.82;;;;;;;;;;5015075;28;20634;-74
2023/07/24 03:58:20;;;;;;;15.70;4.80;;;;;;;;;;5015051;28;20026;-74
2023/07/24 04:00:46;;;;;;;8.15;4.18;;;;;;;;;;5015092;28;20022;-74
2023/07/24 04:03:12;;;;;;;11.63;4.20;;;;;;;;;;5015002;28;20053;-74
2023/07/24 04:05:38;;;;;;;14.30;4.45;;;;;;;;;;5014748;28;20037;-74
2023/07/24 04:08:04;;;;;;;11.10;4.05;;;;;;;;;;5014758;28;20022;-74
2023/07/24 04:10:30;;;;;;;11.38;4.28;;;;;;;;;;5014673;28;20373;-74
2023/07/24 04:12:57;;;;;;;13.18;3.95;;;;;;;;;;5015096;28;20026;-74
2023/07/24 04:15:23;;;;;;;10.45;3.95;;;;;;;;;;5014644;28;20029;-74
2023/07/24 04:17:49;;;;;;;8.98;3.10;;;;;;;;;;5014460;28;20387;-74
2023/07/24 04:20:16;;;;;;;9.32;3.50;;;;;;;;;;5014573;28;20030;-74
2023/07/24 04:22:42;;;;;;;11.77;3.72;;;;;;;;;;5014678;28;20045;-74
2023/07/24 04:25:08;;;;;;;8.88;4.30;;;;;;;;;;5014723;28;20045;-74
2023/07/24 04:27:34;;;;;;;15.98;4.20;;;;;;;;;;5014211;28;20125;-74
2023/07/24 04:30:00;;;;;;;14.75;4.10;;;;;;;;;;5014395;28;20109;-74
2023/07/24 04:32:30;;;;;;;9.52;4.00;;;;;;;;;;5014413;28;20022;-74
2023/07/24 04:34:56;;;;;;;11.80;4.53;;;;;;;;;;5014466;28;20040;-74
2023/07/24 04:37:22;;;;;;;17.00;4.60;;;;;;;;;;5014420;28;20030;-74
2023/07/24 04:39:48;;;;;;;15.65;4.15;;;;;;;;;;5014570;28;20049;-74
2023/07/24 04:42:14;;;;;;;13.45;4.13;;;;;;;;;;5014303;28;20048;-74
2023/07/24 04:44:40;;;;;;;11.75;4.03;;;;;;;;;;5014573;28;20030;-74
2023/07/24 04:47:06;;;;;;;9.32;4.07;;;;;;;;;;5014241;28;20033;-74
2023/07/24 04:49:32;;;;;;;12.80;4.20;;;;;;;;;;5014188;28;20084;-74
2023/07/24 04:51:59;;;;;;;14.18;4.40;;;;;;;;;;5014422;28;20028;-74
2023/07/24 04:54:25;;;;;;;9.75;4.68;;;;;;;;;;5014007;28;20040;-74
2023/07/24 04:56:51;;;;;;;14.55;4.60;;;;;;;;;;5014080;28;20111;-74
2023/07/24 04:59:17;;;;;;;12.23;4.30;;;;;;;;;;5013947;28;20050;-74
2023/07/24 05:01:43;;;;;;;9.70;4.65;;;;;;;;;;5013908;28;20436;-74
2023/07/24 05:04:09;;;;;;;8.93;3.72;;;;;;;;;;5013492;28;20428;-74
2023/07/24 05:06:37;;;;;;;15.35;4.78;;;;;;;;;;5014059;28;20369;-74
2023/07/24 05:09:03;;;;;;;11.20;4.10;;;;;;;;;;5014011;28;20125;-74
2023/07/24 05:11:29;;;;;;;12.18;4.63;;;;;;;;;;5013557;28;20105;-74
2023/07/24 05:13:55;;;;;;;13.25;4.78;;;;;;;;;;5013639;28;20026;-74
2023/07/24 05:16:21;;;;;;;13.68;5.05;;;;;;;;;;5013566;28;20033;-74
2023/07/24 05:18:47;;;;;;;14.68;4.70;;;;;;;;;;5012170;28;20041;-74
2023/07/24 05:21:13;;;;;;;13.38;4.50;;;;;;;;;;5013438;28;20083;-74
2023/07/24 05:23:39;;;;;;;11.98;4.53;;;;;;;;;;5013415;28;20026;-74
2023/07/24 05:26:05;;;;;;;14.73;4.93;;;;;;;;;;5013335;28;20030;-74
2023/07/24 05:28:32;;;;;;;15.48;4.55;;;;;;;;;;5011937;28;20048;-74
2023/07/24 05:31:02;;;;;;;11.95;4.57;;;;;;;;;;5013320;28;20374;-75
2023/07/24 05:33:28;;;;;;;11.68;4.45;;;;;;;;;;5013589;28;20018;-74
2023/07/24 05:36:04;;;;;;;14.50;4.82;;;;;;;;;;5013381;28;20021;-75
2023/07/24 05:38:30;;;;;;;14.60;4.90;;;;;;;;;;5013431;28;20347;-75
2023/07/24 05:40:57;;;;;;;15.45;4.72;;;;;;;;;;5013383;28;20098;-75
2023/07/24 05:43:23;;;;;;;12.68;5.32;;;;;;;;;;5013300;28;20032;-75
2023/07/24 05:45:51;;;;;;;14.90;5.70;;;;;;;;;;5013105;28;20018;-74
2023/07/24 05:48:17;;;;;;;16.65;5.70;;;;;;;;;;5013376;28;20026;-75
2023/07/24 05:50:43;;;;;;;15.75;5.70;;;;;;;;;;5013112;28;20710;-75
2023/07/24 05:53:09;;;;;;;13.25;5.47;;;;;;;;;;5013058;28;20088;-75
2023/07/24 05:55:35;;;;;;;17.77;6.15;;;;;;;;;;5013128;28;20037;-75
2023/07/24 05:58:01;;;;;;;17.25;5.95;;;;;;;;;;5013027;28;20030;-75
2023/07/24 06:00:27;;;;;;;13.93;4.60;;;;;;;;;;5012973;28;20084;-75
2023/07/24 06:02:54;;;;;;;15.93;5.57;;;;;;;;;;5012906;28;20026;-75
2023/07/24 06:05:20;;;;;;;9.80;5.25;;;;;;;;;;5012935;28;20018;-75
2023/07/24 06:07:46;;;;;;;15.18;5.53;;;;;;;;;;5012905;28;20029;-75
2023/07/24 06:10:12;;;;;;;14.32;4.78;;;;;;;;;;5012923;28;20034;-75
2023/07/24 06:12:38;;;;;;;14.82;5.45;;;;;;;;;;5012978;28;20050;-75
2023/07/24 06:15:05;;;;;;;16.73;5.90;;;;;;;;;;5012607;28;20034;-74
2023/07/24 06:17:31;;;;;;;15.57;4.93;;;;;;;;;;5012252;28;20041;-75
2023/07/24 06:19:57;;;;;;;14.48;4.43;;;;;;;;;;5012612;28;20026;-75
2023/07/24 06:22:23;;;;;;;13.80;5.18;;;;;;;;;;5012627;28;20032;-74
2023/07/24 06:24:49;;;;;;;12.98;5.07;;;;;;;;;;5012679;28;20034;-75
2023/07/24 06:27:15;;;;;;;15.52;4.85;;;;;;;;;;5012462;28;20050;-75
2023/07/24 06:29:42;;;;;;;15.70;5.07;;;;;;;;;;5012454;28;20026;-76
2023/07/24 06:32:08;;;;;;;12.82;4.53;;;;;;;;;;5012637;28;20026;-76
2023/07/24 06:34:35;;;;;;;12.48;4.88;;;;;;;;;;5012490;28;20472;-75
2023/07/24 06:37:01;;;;;;;9.07;4.88;;;;;;;;;;5012411;28;20026;-75
2023/07/24 06:39:28;;;;;;;13.23;5.13;;;;;;;;;;5012517;28;20029;-76
2023/07/24 06:41:54;;;;;;;12.13;4.93;;;;;;;;;;5012417;28;20431;-76
2023/07/24 06:44:20;;;;;;;10.70;4.97;;;;;;;;;;5012283;28;20029;-75
2023/07/24 06:46:46;;;;;;;13.40;5.03;;;;;;;;;;5012234;28;20026;-75
2023/07/24 06:49:12;;;;;;;12.20;5.13;;;;;;;;;;5012010;28;20052;-76
2023/07/24 06:51:38;;;;;;;14.60;3.95;;;;;;;;;;5012434;28;20369;-76
2023/07/24 06:54:04;;;;;;;13.23;4.82;;;;;;;;;;5012212;28;20040;-76
2023/07/24 06:56:31;;;;;;;15.20;5.20;;;;;;;;;;5012294;28;20461;-76
2023/07/24 06:58:57;;;;;;;10.38;4.60;;;;;;;;;;5012842;28;20029;-76
2023/07/24 07:01:23;;;;;;;14.75;4.50;;;;;;;;;;5012433;28;20024;-76
2023/07/24 07:03:49;;;;;;;12.02;4.38;;;;;;;;;;5012286;28;20026;-76
2023/07/24 07:06:15;;;;;;;11.32;4.68;;;;;;;;;;5011577;28;20044;-76
2023/07/24 07:08:41;;;;;;;13.70;5.05;;;;;;;;;;5012045;28;20034;-76
2023/07/24 07:11:07;;;;;;;15.57;4.80;;;;;;;;;;5012210;28;20097;-75
2023/07/24 07:13:33;;;;;;;9.13;4.38;;;;;;;;;;5012138;28;20034;-75
2023/07/24 07:15:59;;;;;;;10.48;3.80;;;;;;;;;;5012124;28;20504;-74
2023/07/24 07:18:25;;;;;;;12.27;5.05;;;;;;;;;;5012079;28;20480;-74
2023/07/24 07:20:52;;;;;;;11.55;4.60;;;;;;;;;;5012381;28;20030;-75
2023/07/24 07:23:18;;;;;;;11.70;4.57;;;;;;;;;;5012234;28;20041;-75
2023/07/24 07:25:45;;;;;;;7.53;4.28;;;;;;;;;;5012005;28;20026;-75
2023/07/24 07:28:11;;;;;;;9.70;4.68;;;;;;;;;;5014464;28;20382;-75
2023/07/24 07:30:37;;;;;;;12.10;4.80;;;;;;;;;;5015632;28;20041;-75
2023/07/24 07:33:05;;;;;;;9.50;4.50;;;;;;;;;;5015473;28;20026;-75
2023/07/24 07:35:32;;;;;;;11.82;4.38;;;;;;;;;;5015946;28;20112;-76
2023/07/24 07:37:58;;;;;;;10.77;4.63;;;;;;;;;;5015497;28;20450;-76
2023/07/24 07:40:24;;;;;;;13.35;4.65;;;;;;;;;;5015460;28;20025;-75
2023/07/24 07:42:50;;;;;;;7.97;4.28;;;;;;;;;;5015485;28;20105;-76
2023/07/24 07:45:16;;;;;;;9.02;4.60;;;;;;;;;;5015401;28;20054;-75
2023/07/24 07:47:42;;;;;;;10.48;4.63;;;;;;;;;;5015625;28;20423;-75
2023/07/24 07:50:08;;;;;;;12.82;4.30;;;;;;;;;;5015191;28;20037;-76
2023/07/24 07:52:34;;;;;;;10.43;4.68;;;;;;;;;;5015423;28;20092;-76
2023/07/24 07:55:01;;;;;;;15.82;5.32;;;;;;;;;;5015214;28;20109;-76
2023/07/24 07:57:27;;;;;;;10.77;4.88;;;;;;;;;;5015538;28;20030;-76
2023/07/24 07:59:53;;;;;;;10.38;4.82;;;;;;;;;;5015138;28;20037;-76
2023/07/24 08:02:19;;;;;;;12.32;5.35;;;;;;;;;;5015093;28;20058;-76
2023/07/24 08:04:45;;;;;;;17.80;5.32;;;;;;;;;;5015059;28;20061;-76
2023/07/24 08:07:11;;;;;;;15.45;6.13;;;;;;;;;;5014876;28;20419;-74
2023/07/24 08:09:38;;;;;;;13.65;5.55;;;;;;;;;;5014850;28;20029;-74
2023/07/24 08:12:04;;;;;;;24.08;6.30;;;;;;;;;;5015220;28;20038;-75
2023/07/24 08:14:30;;;;;;;43.05;7.53;;;;;;;;;;5014336;28;20060;-75
2023/07/24 08:16:56;;;;;;;18.27;6.47;;;;;;;;;;5013405;28;20030;-76
2023/07/24 08:19:22;;;;;;;17.98;6.70;;;;;;;;;;5014821;28;20026;-75
2023/07/24 08:21:48;;;;;;;12.75;6.03;;;;;;;;;;5014654;28;20026;-75
2023/07/24 08:24:14;;;;;;;11.90;6.60;;;;;;;;;;5014688;28;20079;-75
2023/07/24 08:26:40;;;;;;;10.88;6.40;;;;;;;;;;5013388;28;20030;-75
2023/07/24 08:29:06;;;;;;;10.25;6.57;;;;;;;;;;5014736;28;20026;-75
2023/07/24 08:31:32;;;;;;;11.65;7.65;;;;;;;;;;5014544;28;20022;-75
2023/07/24 08:33:58;;;;;;;12.07;7.22;;;;;;;;;;5014594;28;20026;-75
2023/07/24 08:36:24;;;;;;;9.80;7.90;;;;;;;;;;5022073;28;20080;-75
2023/07/24 08:38:50;;;;;;;9.82;7.18;;;;;;;;;;5010080;28;20046;-74
2023/07/24 08:41:16;;;;;;;11.85;8.35;;;;;;;;;;5008613;28;20087;-75
2023/07/24 08:43:43;;;;;;;11.52;8.18;;;;;;;;;;5015920;28;20097;-75
2023/07/24 08:46:09;;;;;;;9.98;7.90;;;;;;;;;;5015288;28;20014;-75
2023/07/24 08:48:36;;;;;;;9.15;7.57;;;;;;;;;;5011442;28;20034;-74
2023/07/24 08:51:03;;;;;;;10.38;7.90;;;;;;;;;;5014008;28;20032;-75
2023/07/24 08:53:30;;;;;;;9.23;7.20;;;;;;;;;;5014129;28;20481;-75
2023/07/24 08:55:56;;;;;;;10.25;7.70;;;;;;;;;;5013977;28;20065;-75
2023/07/24 08:58:22;;;;;;;11.65;7.50;;;;;;;;;;5013949;28;20037;-75
2023/07/24 09:00:48;;;;;;;8.65;7.05;;;;;;;;;;5013755;28;20030;-75
2023/07/24 09:03:14;;;;;;;9.40;6.72;;;;;;;;;;5014099;28;20048;-75
2023/07/24 09:05:40;;;;;;;9.63;7.05;;;;;;;;;;5013812;28;20022;-75
2023/07/24 09:08:07;;;;;;;13.05;7.15;;;;;;;;;;5013850;28;20339;-75
2023/07/24 09:10:33;;;;;;;7.43;6.63;;;;;;;;;;5013630;28;20038;-75
2023/07/24 09:12:59;;;;;;;7.57;6.72;;;;;;;;;;5014019;28;20030;-75
2023/07/24 09:15:25;;;;;;;7.10;6.32;;;;;;;;;;5014040;28;20021;-75
2023/07/24 09:17:52;;;;;;;7.93;5.93;;;;;;;;;;5013605;28;20021;-75
2023/07/24 09:20:18;;;;;;;9.02;6.18;;;;;;;;;;5014763;28;20030;-75
2023/07/24 09:22:51;;;;;;;8.52;5.30;;;;;;;;;;5011049;28;20026;-75
2023/07/24 09:25:17;;;;;;;8.20;4.55;;;;;;;;;;4993967;28;20402;-75
2023/07/24 09:27:43;;;;;;;7.30;6.55;;;;;;;;;;4993598;28;20117;-76
2023/07/24 09:30:14;;;;;;;9.63;6.10;;;;;;;;;;4993505;28;20038;-76
2023/07/24 09:32:40;;;;;;;8.63;5.95;;;;;;;;;;4994258;28;20396;-76
2023/07/24 09:35:28;;;;;;;7.80;6.50;;;;;;;;;;4993833;28;20470;-75
2023/07/24 09:38:04;;;;;;;7.20;5.57;;;;;;;;;;4994084;28;20023;-75
2023/07/24 09:40:38;;;;;;;7.72;5.95;;;;;;;;;;4998551;28;20038;-76
2023/07/24 09:43:04;;;;;;;6.90;4.90;;;;;;;;;;5013166;28;20022;-76
2023/07/24 09:45:30;;;;;;;7.97;5.30;;;;;;;;;;5013205;28;20449;-76
2023/07/24 09:48:00;;;;;;;7.05;5.53;;;;;;;;;;5013497;28;20030;-76
2023/07/24 09:50:26;;;;;;;;;;;;;;;;;;5013138;28;20022;-76
2023/07/24 09:52:52;;;;;;;8.02;6.03;;;;;;;;;;5013267;28;20327;-76
2023/07/24 09:55:29;;;;;;;5.63;5.07;;;;;;;;;;5013471;28;20080;-76
2023/07/24 09:57:55;;;;;;;6.60;5.45;;;;;;;;;;5014239;28;20109;-76
2023/07/24 10:00:21;;;;;;;8.02;5.95;;;;;;;;;;5013144;28;20033;-76
2023/07/24 10:02:47;;;;;;;6.65;5.32;;;;;;;;;;5013162;28;20080;-76
2023/07/24 10:05:14;;;;;;;6.30;4.95;;;;;;;;;;5012949;28;20437;-76
2023/07/24 10:07:40;;;;;;;5.70;5.07;;;;;;;;;;5012727;28;20465;-76
2023/07/24 10:10:07;;;;;;;6.03;4.80;;;;;;;;;;5012834;28;20037;-76
2023/07/24 10:12:34;;;;;;;6.97;5.30;;;;;;;;;;5012799;28;20552;-75
2023/07/24 10:15:00;;;;;;;6.10;4.80;;;;;;;;;;5013117;28;20678;-76
2023/07/24 10:17:36;;;;;;;7.60;5.35;;;;;;;;;;5012852;28;20090;-76
2023/07/24 10:20:04;;;;;;;6.07;4.63;;;;;;;;;;5012897;28;20028;-76
2023/07/24 10:22:30;;;;;;;6.68;5.25;;;;;;;;;;5013194;28;20038;-76
2023/07/24 10:24:56;;;;;;;5.75;4.70;;;;;;;;;;5013061;28;20076;-76
2023/07/24 10:27:28;;;;;;;6.75;4.75;;;;;;;;;;5012465;28;20125;-76
2023/07/24 10:30:04;;;;;;;5.65;4.88;;;;;;;;;;5012869;28;20029;-75
2023/07/24 10:32:31;;;;;;;7.05;4.97;;;;;;;;;;5014296;28;20026;-76
2023/07/24 10:35:07;;;;;;;5.70;5.18;;;;;;;;;;5016556;28;20018;-76
2023/07/24 10:37:37;;;;;;;5.93;4.70;;;;;;;;;;5012621;28;20018;-76
2023/07/24 10:40:04;;;;;;;5.32;4.75;;;;;;;;;;5012176;28;20501;-76
2023/07/24 10:42:30;;;;;;;5.38;4.68;;;;;;;;;;5012274;28;20030;-76
2023/07/24 10:45:14;;;;;;;8.20;5.25;;;;;;;;;;5012450;28;20025;-76
2023/07/24 10:47:40;;;;;;;7.25;4.18;;;;;;;;;;5012463;28;20038;-76
2023/07/24 10:50:06;;;;;;;6.47;4.60;;;;;;;;;;5012235;28;20037;-75
2023/07/24 10:52:33;;;;;;;5.28;4.78;;;;;;;;;;5012375;28;20038;-76
2023/07/24 10:55:03;;;;;;;10.48;4.90;;;;;;;;;;5012172;28;20018;-76
2023/07/24 10:57:38;;;;;;;5.45;4.32;;;;;;;;;;5011063;28;20484;-75
2023/07/24 11:00:05;;;;;;;6.53;4.45;;;;;;;;;;5012337;28;20075;-76
2023/07/24 11:02:31;;;;;;;5.50;4.22;;;;;;;;;;5013659;28;20445;-75
2023/07/24 11:05:00;;;;;;;5.25;4.75;;;;;;;;;;5016098;28;20084;-76
2023/07/24 11:07:26;;;;;;;6.22;5.13;;;;;;;;;;5016502;28;20021;-76
2023/07/24 11:09:53;;;;;;;5.65;4.93;;;;;;;;;;5016011;28;20025;-75
2023/07/24 11:12:19;;;;;;;5.68;3.70;;;;;;;;;;5016339;28;20022;-76
2023/07/24 11:14:48;;;;;;;4.97;4.20;;;;;;;;;;5015990;28;20081;-75
2023/07/24 11:17:14;;;;;;;7.05;4.13;;;;;;;;;;5016009;28;20080;-76
2023/07/24 11:19:40;;;;;;;4.43;3.85;;;;;;;;;;5015943;28;20030;-76
2023/07/24 11:22:07;;;;;;;2.85;2.60;;;;;;;;;;5016063;28;20439;-76
2023/07/24 11:24:33;;;;;;;3.17;2.80;;;;;;;;;;5015625;28;20053;-76
2023/07/24 11:26:59;;;;;;;2.78;2.20;;;;;;;;;;5015428;28;20088;-76
2023/07/24 11:29:25;;;;;;;6.05;2.30;;;;;;;;;;5015877;28;20026;-76
2023/07/24 11:31:56;;;;;;;3.67;2.70;;;;;;;;;;5015699;28;20030;-76
2023/07/24 11:34:22;;;;;;;3.60;2.10;;;;;;;;;;5015916;28;20029;-76
2023/07/24 11:36:48;;;;;;;3.08;2.42;;;;;;;;;;5015568;28;20022;-76
2023/07/24 11:39:14;;;;;;;3.25;1.65;;;;;;;;;;5015220;28;20030;-76
2023/07/24 11:41:40;;;;;;;1.60;1.40;;;;;;;;;;5015422;28;20105;-76
2023/07/24 11:44:06;;;;;;;1.52;1.25;;;;;;;;;;5015404;28;20543;-76
2023/07/24 11:46:32;;;;;;;3.17;1.50;;;;;;;;;;5015368;28;20474;-76
2023/07/24 11:48:58;;;;;;;1.10;1.00;;;;;;;;;;5015284;28;20033;-76
2023/07/24 11:51:27;;;;;;;2.08;1.20;;;;;;;;;;5015199;28;20369;-75
2023/07/24 11:53:53;;;;;;;1.55;0.80;;;;;;;;;;4998407;28;20034;-76
2023/07/24 11:56:21;;;;;;;1.20;0.80;;;;;;;;;;4997634;28;20646;-75
2023/07/24 11:58:47;;;;;;;1.05;0.65;;;;;;;;;;5015484;28;20022;-76
2023/07/24 12:01:13;;;;;;;0.88;0.73;;;;;;;;;;5014991;28;20022;-76
2023/07/24 12:03:41;;;;;;;1.10;0.80;;;;;;;;;;5014959;28;20030;-76
2023/07/24 12:06:14;;;;;;;0.98;0.88;;;;;;;;;;5014781;28;20026;-76
2023/07/24 12:08:40;;;;;;;1.58;1.00;;;;;;;;;;5014536;28;20061;-76
2023/07/24 12:11:16;;;;;;;1.13;0.90;;;;;;;;;;5014746;28;20555;-76
2023/07/24 12:13:42;;;;;;;2.90;0.98;;;;;;;;;;5013813;28;20061;-75
2023/07/24 12:16:08;;;;;;;3.92;0.98;;;;;;;;;;5014699;28;20108;-76
2023/07/24 12:18:34;;;;;;;2.33;0.90;;;;;;;;;;5015106;28;20026;-76
2023/07/24 12:21:00;;;;;;;3.45;1.10;;;;;;;;;;5015036;28;20021;-77
2023/07/24 12:23:26;;;;;;;3.45;0.95;;;;;;;;;;5014762;28;20484;-77
2023/07/24 12:25:53;;;;;;;1.42;0.98;;;;;;;;;;5014631;28;20064;-77
2023/07/24 12:28:19;;;;;;;2.30;0.70;;;;;;;;;;5013294;28;20060;-77
2023/07/24 12:30:45;;;;;;;2.17;0.90;;;;;;;;;;5014593;28;20030;-77
2023/07/24 12:33:11;;;;;;;2.60;0.68;;;;;;;;;;5014507;28;20034;-77
2023/07/24 12:35:37;;;;;;;1.88;0.80;;;;;;;;;;5014350;28;20469;-77
2023/07/24 12:38:03;;;;;;;1.42;0.73;;;;;;;;;;5014727;28;20061;-77
2023/07/24 12:40:29;;;;;;;3.10;0.65;;;;;;;;;;5014692;28;20058;-77
2023/07/24 12:42:55;;;;;;;2.83;0.73;;;;;;;;;;5014499;28;20500;-77
2023/07/24 12:45:21;;;;;;;1.67;0.50;;;;;;;;;;5014314;28;20034;-77
2023/07/24 12:47:47;;;;;;;3.08;0.70;;;;;;;;;;5014250;28;20026;-77
2023/07/24 12:50:13;;;;;;;3.90;0.88;;;;;;;;;;5014176;28;20440;-77
2023/07/24 12:52:39;;;;;;;6.20;0.63;;;;;;;;;;5014277;28;20034;-77
2023/07/24 12:55:05;;;;;;;2.30;0.80;;;;;;;;;;5014124;28;20032;-77
2023/07/24 12:57:31;;;;;;;1.63;0.70;;;;;;;;;;5014073;28;20021;-77
2023/07/24 12:59:57;;;;;;;1.17;0.70;;;;;;;;;;5014314;28;20026;-76
2023/07/24 13:02:23;;;;;;;2.75;0.70;;;;;;;;;;5013946;28;20369;-76
2023/07/24 13:04:50;;;;;;;2.92;0.80;;;;;;;;;;5014211;28;20022;-76
2023/07/24 13:07:16;;;;;;;3.17;0.63;;;;;;;;;;5014187;28;20660;-76
2023/07/24 13:09:42;;;;;;;3.33;0.75;;;;;;;;;;5013673;28;20347;-76
2023/07/24 13:12:09;;;;;;;1.70;0.77;;;;;;;;;;5014096;28;20041;-76
2023/07/24 13:14:35;;;;;;;1.13;0.55;;;;;;;;;;5013795;28;20105;-76
2023/07/24 13:17:01;;;;;;;3.28;0.50;;;;;;;;;;5013704;28;20104;-76
2023/07/24 13:19:27;;;;;;;1.83;0.40;;;;;;;;;;5013527;28;20397;-76
2023/07/24 13:21:53;;;;;;;3.63;0.57;;;;;;;;;;5013875;28;20026;-76
2023/07/24 13:24:19;;;;;;;1.45;0.60;;;;;;;;;;5013576;28;20033;-76
2023/07/24 13:26:45;;;;;;;2.30;0.30;;;;;;;;;;5013060;28;20018;-77
2023/07/24 13:29:11;;;;;;;2.22;0.73;;;;;;;;;;5013426;28;20040;-76
2023/07/24 13:31:37;;;;;;;4.03;0.80;;;;;;;;;;5013365;28;20469;-76
2023/07/24 13:34:03;;;;;;;2.25;0.55;;;;;;;;;;5013233;28;20041;-76
2023/07/24 13:36:29;;;;;;;2.28;0.70;;;;;;;;;;5013914;28;20026;-76
2023/07/24 13:38:55;;;;;;;2.80;0.80;;;;;;;;;;5013270;28;20100;-76
2023/07/24 13:41:21;;;;;;;1.70;0.90;;;;;;;;;;5013238;28;20396;-76
2023/07/24 13:43:47;;;;;;;5.25;1.90;;;;;;;;;;5013255;28;20033;-76
2023/07/24 13:46:13;;;;;;;4.13;1.30;;;;;;;;;;5013760;28;20366;-76
2023/07/24 13:48:39;;;;;;;8.02;1.13;;;;;;;;;;5013348;28;20026;-76
2023/07/24 13:51:05;;;;;;;2.10;0.88;;;;;;;;;;5013407;28;20033;-76
2023/07/24 13:53:31;;;;;;;2.65;1.05;;;;;;;;;;5013156;28;20030;-76
2023/07/24 13:55:57;;;;;;;6.53;1.75;;;;;;;;;;5013152;28;20354;-76
2023/07/24 13:58:23;;;;;;;4.63;1.88;;;;;;;;;;5013198;28;20036;-76
2023/07/24 14:00:49;;;;;;;1.42;1.33;;;;;;;;;;5012959;28;20064;-76
2023/07/24 14:03:15;;;;;;;5.53;1.05;;;;;;;;;;5012965;28;20053;-76
2023/07/24 14:05:41;;;;;;;3.45;1.17;;;;;;;;;;5012885;28;20497;-76
2023/07/24 14:08:08;;;;;;;5.90;1.02;;;;;;;;;;5012929;28;20034;-75
2023/07/24 14:10:34;;;;;;;4.75;1.58;;;;;;;;;;5012842;28;20029;-76
2023/07/24 14:13:06;;;;;;;5.10;1.27;;;;;;;;;;5009677;28;20408;-78
2023/07/24 14:15:32;;;;;;;1.77;1.10;;;;;;;;;;5013745;28;20710;-78
2023/07/24 14:17:59;;;;;;;8.57;2.35;;;;;;;;;;5021414;28;20059;-77
2023/07/24 14:20:25;;;;;;;8.32;2.05;;;;;;;;;;5029584;28;20046;-78
2023/07/24 14:22:51;;;;;;;3.60;1.20;;;;;;;;;;5014784;28;20116;-78
2023/07/24 14:25:17;;;;;;;3.50;1.30;;;;;;;;;;5008263;28;20046;-78
2023/07/24 14:27:43;;;;;;;4.60;1.25;;;;;;;;;;5018253;28;20124;-78
2023/07/24 14:30:10;;;;;;;4.45;1.30;;;;;;;;;;5016413;28;20028;-77
2023/07/24 14:32:36;;;;;;;3.70;1.38;;;;;;;;;;5012972;28;20261;-78